Time;durP1;ratioP1;P1;durP2;ratioP2;P2;SDS_P1;SDS_P2;PMS_P1;PMS_P2;Temp;Humidity;BMP_temperature;BMP_pressure;BME280_temperature;BME280_humidity;BME280_pressure;Samples;Min_cycle;Max_cycle;Signal;HPM_P1;HPM_P2
2022/11/11 00:01:13;;;;;;;12.20;4.25;;;;;;;8.91;89.42;102339.59;5046368;28;20461;-67
2022/11/11 00:03:41;;;;;;;9.07;3.72;;;;;;;8.57;91.72;102346.38;5047210;28;20057;-67
2022/11/11 00:06:11;;;;;;;12.43;4.70;;;;;;;8.43;92.37;102340.50;5036978;28;20128;-66
2022/11/11 00:08:37;;;;;;;11.27;4.38;;;;;;;8.40;93.00;102338.81;5046416;28;20052;-67
2022/11/11 00:11:06;;;;;;;9.63;4.03;;;;;;;8.37;93.36;102332.78;5046363;28;20424;-67
2022/11/11 00:13:34;;;;;;;10.93;4.30;;;;;;;8.56;92.05;102335.06;5036701;28;20436;-67
2022/11/11 00:16:05;;;;;;;7.88;4.25;;;;;;;8.54;92.31;102339.44;5040342;28;20048;-67
2022/11/11 00:27:04;;;;;;;11.65;4.10;;;;;;;9.02;87.32;102342.00;5036689;28;20109;-67
2022/11/11 00:29:30;;;;;;;10.57;4.60;;;;;;;8.58;90.76;102345.47;5045434;28;20554;-67
2022/11/11 00:35:51;;;;;;;11.68;4.15;;;;;;;8.76;89.74;102353.84;5060079;28;20565;-67
2022/11/11 00:37:28;;;;;;;13.20;4.43;;;;;;;8.85;89.53;102351.94;5034240;28;20036;-67
2022/11/11 00:39:54;;;;;;;8.48;4.20;;;;;;;9.32;87.13;102362.34;5061831;28;20144;-67
2022/11/11 00:42:20;;;;;;;10.45;3.70;;;;;;;9.19;86.73;102368.72;5045675;28;20052;-67
2022/11/11 00:44:47;;;;;;;10.13;4.15;;;;;;;9.38;85.05;102366.59;5036169;28;20044;-66
2022/11/11 00:52:45;;;;;;;9.20;4.28;;;;;;;8.74;88.10;102373.94;5044736;28;20086;-67
2022/11/11 00:55:11;;;;;;;17.55;4.45;;;;;;;8.63;87.38;102364.56;5048689;28;20062;-67
2022/11/11 00:57:38;;;;;;;10.75;4.40;;;;;;;8.54;87.12;102364.72;5038686;28;20051;-67
2022/11/11 01:00:05;;;;;;;8.60;3.80;;;;;;;8.33;89.28;102360.72;5047834;28;20044;-67
2022/11/11 01:02:31;;;;;;;12.85;4.28;;;;;;;8.27;90.18;102376.47;5050045;28;20040;-67
2022/11/11 01:04:58;;;;;;;11.18;4.05;;;;;;;8.49;88.77;102367.44;5040301;28;20045;-67
2022/11/11 01:07:24;;;;;;;11.10;4.00;;;;;;;8.36;89.95;102371.13;5049662;28;20052;-67
2022/11/11 01:09:52;;;;;;;15.40;5.60;;;;;;;8.29;91.76;102362.53;5049312;28;20051;-68
2022/11/11 01:12:19;;;;;;;10.70;4.55;;;;;;;8.53;88.99;102358.66;5036841;28;20048;-67
2022/11/11 01:14:45;;;;;;;17.05;4.32;;;;;;;8.66;88.13;102354.91;5037195;28;20045;-68
2022/11/11 01:17:11;;;;;;;16.45;4.25;;;;;;;8.44;90.33;102350.94;5047622;28;20404;-67
2022/11/11 01:19:38;;;;;;;10.35;4.63;;;;;;;8.45;90.04;102357.03;5037045;28;20071;-67
2022/11/11 01:22:04;;;;;;;10.38;4.10;;;;;;;8.42;90.19;102350.13;5049115;28;20062;-67
2022/11/11 01:24:31;;;;;;;13.43;4.32;;;;;;;8.32;91.17;102349.41;5049833;28;20044;-67
2022/11/11 01:26:59;;;;;;;15.88;4.90;;;;;;;8.86;88.39;102341.47;5039748;28;20048;-67
2022/11/11 01:29:25;;;;;;;11.57;3.88;;;;;;;9.02;87.11;102342.88;5048226;28;20044;-67
2022/11/11 01:31:52;;;;;;;11.25;3.97;;;;;;;8.53;89.80;102352.56;5049364;28;20603;-67
2022/11/11 01:34:18;;;;;;;15.30;4.50;;;;;;;8.63;89.39;102349.75;5039819;28;20393;-67
2022/11/11 01:36:44;;;;;;;12.32;4.20;;;;;;;8.54;89.63;102339.44;5048710;28;20408;-67
2022/11/11 01:39:11;;;;;;;12.80;4.28;;;;;;;8.50;90.23;102348.22;5048588;28;20052;-67
2022/11/11 01:41:37;;;;;;;14.95;5.28;;;;;;;8.08;92.14;102361.97;5038826;28;20055;-67
2022/11/11 01:44:19;;;;;;;11.20;4.53;;;;;;;8.46;90.72;102348.31;5048219;28;20041;-67
2022/11/11 01:46:49;;;;;;;12.57;4.72;;;;;;;8.56;88.67;102345.50;5038551;28;20075;-67
2022/11/11 01:49:30;;;;;;;14.52;4.38;;;;;;;8.63;88.58;102341.03;5048692;28;20267;-67
2022/11/11 01:52:04;;;;;;;16.48;5.43;;;;;;;8.42;88.92;102344.91;5029345;28;20573;-67
2022/11/11 01:54:36;;;;;;;7.82;4.28;;;;;;;7.93;93.04;102350.00;5045101;28;20516;-67
2022/11/11 01:57:08;;;;;;;9.93;4.97;;;;;;;8.46;89.75;102349.16;5048900;28;20098;-67
2022/11/11 01:59:40;;;;;;;10.40;4.30;;;;;;;8.42;90.45;102344.91;5038833;28;20049;-68
2022/11/11 02:02:15;;;;;;;11.27;4.47;;;;;;;8.01;91.90;102353.38;5047821;28;20051;-67
2022/11/11 02:07:27;;;;;;;9.05;4.38;;;;;;;8.18;90.57;102345.25;5029154;28;20056;-67
2022/11/11 02:09:55;;;;;;;11.82;4.45;;;;;;;8.42;89.87;102350.13;5037161;28;20045;-68
2022/11/11 02:15:08;;;;;;;17.00;4.80;;;;;;;8.53;89.03;102360.38;5038094;28;20047;-68
2022/11/11 02:17:35;;;;;;;8.55;4.38;;;;;;;8.36;89.36;102359.78;5048745;28;20432;-68
2022/11/11 02:20:03;;;;;;;13.95;4.07;;;;;;;8.48;88.33;102365.69;5047607;28;20040;-67
2022/11/11 02:22:40;;;;;;;11.00;3.90;;;;;;;8.89;86.44;102372.78;5038797;28;20047;-67
2022/11/11 02:25:11;;;;;;;8.82;4.50;;;;;;;8.44;88.69;102363.16;5047293;28;20544;-67
2022/11/11 02:27:42;;;;;;;7.53;3.88;;;;;;;8.38;88.59;102363.25;5048515;28;20049;-67
2022/11/11 02:30:14;;;;;;;8.52;4.13;;;;;;;8.44;87.80;102361.41;5048001;28;20551;-67
2022/11/11 02:32:41;;;;;;;11.88;4.38;;;;;;;8.35;88.43;102360.72;5047567;28;20070;-67
2022/11/11 02:35:13;;;;;;;10.55;3.90;;;;;;;8.71;86.86;102357.44;5038634;28;20431;-67
2022/11/11 02:37:42;;;;;;;12.10;4.53;;;;;;;8.47;87.74;102361.34;5048020;28;20041;-67
2022/11/11 02:40:14;;;;;;;12.65;4.30;;;;;;;8.68;86.01;102366.19;5048659;28;20049;-67
2022/11/11 02:42:40;;;;;;;11.30;4.40;;;;;;;8.44;87.75;102364.00;5018202;28;20084;-67
2022/11/11 02:45:07;;;;;;;10.70;4.10;;;;;;;8.21;89.58;102366.09;5040722;28;20048;-67
2022/11/11 02:47:34;;;;;;;8.25;3.70;;;;;;;8.19;89.90;102367.91;5044527;28;20045;-67
2022/11/11 02:50:00;;;;;;;9.20;4.20;;;;;;;8.19;88.84;102363.53;5037627;28;20045;-67
2022/11/11 02:52:27;;;;;;;8.68;3.90;;;;;;;8.23;88.60;102362.59;5054342;28;20044;-67
2022/11/11 02:54:53;;;;;;;8.23;3.67;;;;;;;8.11;89.85;102359.31;5055622;28;20056;-67
2022/11/11 02:57:21;;;;;;;12.80;4.28;;;;;;;8.01;90.45;102370.78;5051218;28;20044;-67
2022/11/11 02:59:48;;;;;;;13.65;4.45;;;;;;;7.91;92.22;102374.44;5067640;28;20051;-67
2022/11/11 03:02:14;;;;;;;10.02;4.40;;;;;;;8.20;89.99;102367.84;5068664;28;20048;-67
2022/11/11 03:04:41;;;;;;;9.80;3.90;;;;;;;8.19;90.68;102375.72;5041652;28;20056;-67
2022/11/11 03:07:08;;;;;;;9.48;4.47;;;;;;;8.39;89.56;102378.06;5054888;28;20044;-67
2022/11/11 03:09:34;;;;;;;9.95;4.30;;;;;;;8.21;90.74;102384.41;5047904;28;20045;-67
2022/11/11 03:12:01;;;;;;;6.32;3.85;;;;;;;8.60;88.10;102381.19;5037351;28;20036;-67
2022/11/11 03:14:29;;;;;;;11.23;4.03;;;;;;;9.00;85.89;102399.63;5047613;28;20500;-67
2022/11/11 03:19:39;;;;;;;8.30;3.67;;;;;;;9.40;80.80;102401.44;5045564;28;20315;-67
2022/11/11 03:22:05;;;;;;;6.93;3.92;;;;;;;9.12;80.88;102403.75;5047140;28;20051;-67
2022/11/11 03:27:12;;;;;;;8.93;3.70;;;;;;;8.77;84.15;102397.41;5053800;28;20067;-67
2022/11/11 03:29:41;;;;;;;6.97;3.60;;;;;;;9.01;82.27;102401.34;5040071;28;20075;-67
2022/11/11 03:32:08;;;;;;;14.52;4.53;;;;;;;8.55;86.37;102398.69;5059749;28;20049;-67
2022/11/11 03:34:35;;;;;;;11.40;3.88;;;;;;;8.47;85.75;102399.69;5059554;28;20044;-67
2022/11/11 03:39:45;;;;;;;9.35;4.03;;;;;;;8.39;87.65;102409.44;5046417;28;20055;-67
2022/11/11 03:42:12;;;;;;;13.13;4.50;;;;;;;8.21;88.63;102397.47;5059973;28;20040;-67
2022/11/11 03:44:38;;;;;;;13.02;4.15;;;;;;;8.18;89.62;102397.50;5024755;28;20040;-67
2022/11/11 03:47:06;;;;;;;16.38;4.38;;;;;;;8.11;89.66;102383.69;5044996;28;20044;-67
2022/11/11 03:49:32;;;;;;;13.98;4.45;;;;;;;8.24;89.50;102385.22;5044397;28;20408;-67
2022/11/11 03:51:59;;;;;;;9.55;4.30;;;;;;;7.84;91.84;102371.91;5039870;28;20554;-67
2022/11/11 03:54:25;;;;;;;8.90;4.57;;;;;;;7.73;92.58;102363.34;5066348;28;20546;-67
2022/11/11 03:56:52;;;;;;;8.32;3.72;;;;;;;7.70;92.88;102359.91;5047155;28;20413;-67
2022/11/11 03:59:38;;;;;;;15.00;4.78;;;;;;;7.56;94.56;102367.09;5046396;28;20040;-67
2022/11/11 04:10:24;;;;;;;11.77;4.45;;;;;;;7.44;95.92;102360.28;5058716;28;20075;-67
2022/11/11 04:21:42;;;;;;;11.13;4.50;;;;;;;7.53;94.27;102348.84;5042916;28;20047;-67
2022/11/11 04:23:53;;;;;;;11.20;4.20;;;;;;;7.19;96.44;102343.22;5050874;28;20090;-67
2022/11/11 04:26:18;;;;;;;8.38;3.78;;;;;;;7.13;96.97;102348.50;5051208;28;20469;-67
2022/11/11 04:31:29;;;;;;;11.02;4.30;;;;;;;6.74;99.96;102355.88;5051825;28;20115;-67
2022/11/11 04:33:56;;;;;;;9.65;4.28;;;;;;;6.99;97.80;102355.59;5040826;28;20041;-67
2022/11/11 04:36:22;;;;;;;12.77;4.93;;;;;;;6.89;98.88;102361.81;5053585;28;20550;-67
2022/11/11 04:41:33;;;;;;;7.93;3.67;;;;;;;6.85;99.13;102338.38;5050340;28;20514;-67
2022/11/11 04:46:43;;;;;;;19.30;4.50;;;;;;;7.15;97.60;102347.59;5055215;28;20538;-67
2022/11/11 04:49:11;;;;;;;9.43;4.15;;;;;;;6.96;98.63;102342.59;5047528;28;20516;-67
2022/11/11 04:54:18;;;;;;;8.13;4.03;;;;;;;7.38;96.48;102342.09;5068759;28;20743;-67
2022/11/11 04:56:46;;;;;;;11.93;3.85;;;;;;;7.35;96.28;102339.53;5051150;28;20142;-67
2022/11/11 04:59:16;;;;;;;11.95;4.38;;;;;;;7.20;96.85;102345.81;5043680;28;20052;-67
2022/11/11 05:04:31;;;;;;;9.65;3.83;;;;;;;7.15;97.27;102337.16;5067780;28;20137;-67
2022/11/11 05:09:41;;;;;;;11.60;4.78;;;;;;;7.08;97.46;102335.50;5076721;28;20197;-67
2022/11/11 05:12:07;;;;;;;8.60;3.90;;;;;;;6.98;98.24;102322.59;5087716;28;20051;-67
2022/11/11 05:22:48;;;;;;;11.02;3.38;;;;;;;7.13;98.00;102328.47;5081404;28;20054;-67
2022/11/11 05:25:25;;;;;;;11.00;3.70;;;;;;;7.32;96.82;102334.34;5078893;28;20045;-67
2022/11/11 05:27:52;;;;;;;10.70;3.05;;;;;;;7.37;96.59;102342.97;5072839;28;20173;-67
2022/11/11 05:30:20;;;;;;;10.60;3.65;;;;;;;7.71;94.44;102338.16;5085915;28;20078;-67
2022/11/11 05:32:46;;;;;;;9.10;3.58;;;;;;;7.77;93.79;102338.06;5085516;28;20062;-67
2022/11/11 05:35:15;;;;;;;11.13;3.60;;;;;;;8.12;92.02;102334.91;5083982;28;20048;-67
2022/11/11 05:37:42;;;;;;;8.23;3.15;;;;;;;8.35;90.54;102338.06;5086888;28;20056;-67
2022/11/11 05:40:10;;;;;;;9.07;3.20;;;;;;;8.35;89.69;102348.50;5072771;28;20047;-67
2022/11/11 05:42:41;;;;;;;18.23;3.83;;;;;;;8.35;89.85;102358.97;5066151;28;20068;-67
2022/11/11 05:45:08;;;;;;;8.23;3.40;;;;;;;8.62;88.67;102363.69;5068358;28;20066;-67
2022/11/11 05:47:35;;;;;;;8.88;3.15;;;;;;;9.06;86.01;102375.94;5065064;28;20048;-67
2022/11/11 05:50:01;;;;;;;9.70;3.38;;;;;;;9.31;83.70;102370.22;5066617;28;20752;-67
2022/11/11 05:52:30;;;;;;;7.43;3.10;;;;;;;9.28;82.34;102374.63;5064737;28;20044;-67
2022/11/11 05:54:57;;;;;;;11.57;3.22;;;;;;;8.90;82.52;102377.16;5068439;28;20049;-67
2022/11/11 05:57:23;;;;;;;10.35;3.25;;;;;;;8.61;83.70;102372.41;5086322;28;20040;-67
2022/11/11 05:59:50;;;;;;;5.03;2.72;;;;;;;8.67;83.35;102376.69;5084712;28;20048;-67
2022/11/11 06:02:16;;;;;;;7.00;3.08;;;;;;;8.92;82.12;102382.34;5079994;28;20138;-67
2022/11/11 06:04:43;;;;;;;6.90;3.25;;;;;;;8.92;80.80;102390.19;5096868;28;20063;-67
2022/11/11 06:07:09;;;;;;;9.05;3.45;;;;;;;8.94;81.03;102388.41;5069868;28;20044;-67
2022/11/11 06:09:37;;;;;;;15.73;3.50;;;;;;;8.55;82.03;102390.84;5066821;28;20504;-67
2022/11/11 06:12:04;;;;;;;7.75;3.10;;;;;;;8.35;83.40;102397.31;5065120;28;20644;-67
2022/11/11 06:14:30;;;;;;;6.80;2.90;;;;;;;8.10;84.69;102396.75;5066849;28;20040;-66
2022/11/11 06:16:56;;;;;;;8.60;3.38;;;;;;;8.20;84.61;102399.22;5070725;28;20061;-66
2022/11/11 06:19:23;;;;;;;5.05;2.70;;;;;;;8.18;84.60;102411.44;5061232;28;20415;-66
2022/11/11 06:22:00;;;;;;;8.43;3.40;;;;;;;8.26;83.62;102401.75;5075645;28;21193;-66
2022/11/11 06:24:27;;;;;;;6.75;2.83;;;;;;;8.66;81.57;102406.34;5086199;28;20510;-66
2022/11/11 06:26:55;;;;;;;8.13;2.70;;;;;;;8.61;80.55;102409.03;5077228;28;20048;-67
2022/11/11 06:29:21;;;;;;;9.70;3.15;;;;;;;8.37;82.89;102403.34;5063832;28;20044;-66
2022/11/11 06:31:48;;;;;;;9.23;3.40;;;;;;;8.12;84.09;102418.53;5084376;28;20427;-66
2022/11/11 06:34:14;;;;;;;8.60;3.53;;;;;;;8.19;84.62;102414.94;5072627;28;20484;-66
2022/11/11 06:36:41;;;;;;;10.25;3.80;;;;;;;8.41;84.98;102415.47;5064744;28;20060;-66
2022/11/11 06:39:07;;;;;;;11.15;3.17;;;;;;;8.65;83.62;102413.31;5069849;28;20055;-67
2022/11/11 06:41:34;;;;;;;8.15;3.17;;;;;;;8.25;84.75;102431.38;5063301;28;20056;-67
2022/11/11 06:44:01;;;;;;;7.80;3.10;;;;;;;8.30;84.82;102440.06;5064761;28;20048;-67
2022/11/11 06:46:28;;;;;;;5.93;3.17;;;;;;;8.45;85.06;102435.47;5065745;28;20044;-67
2022/11/11 06:48:55;;;;;;;10.40;4.05;;;;;;;8.44;84.52;102438.97;5056391;28;20051;-66
2022/11/11 06:51:21;;;;;;;9.82;3.85;;;;;;;8.28;84.26;102436.56;5060241;28;20036;-66
2022/11/11 06:53:48;;;;;;;10.52;3.33;;;;;;;8.30;85.09;102429.59;5062068;28;20044;-66
2022/11/11 06:56:15;;;;;;;10.95;5.53;;;;;;;8.53;84.40;102420.53;5045407;28;20047;-66
2022/11/11 06:58:41;;;;;;;13.15;7.78;;;;;;;8.50;85.88;102426.63;5056577;28;20051;-66
2022/11/11 07:01:09;;;;;;;11.75;5.80;;;;;;;8.61;86.39;102424.72;5067859;28;20105;-67
2022/11/11 07:03:36;;;;;;;10.30;5.90;;;;;;;8.44;88.04;102420.66;5068944;28;20040;-66
2022/11/11 07:06:04;;;;;;;9.90;5.10;;;;;;;8.52;88.09;102419.66;5065543;28;20045;-66
2022/11/11 07:08:31;;;;;;;9.75;5.32;;;;;;;8.44;88.82;102412.81;5073270;28;20043;-67
2022/11/11 07:10:58;;;;;;;11.52;4.72;;;;;;;8.18;90.20;102411.44;5084626;28;20048;-66
2022/11/11 07:13:25;;;;;;;10.45;4.53;;;;;;;8.10;91.47;102410.69;5078635;28;20040;-66
2022/11/11 07:15:51;;;;;;;10.23;4.13;;;;;;;7.92;92.93;102394.44;5065775;28;20048;-66
2022/11/11 07:18:19;;;;;;;8.15;4.18;;;;;;;8.21;91.31;102392.22;5060606;28;20416;-66
2022/11/11 07:20:46;;;;;;;9.68;3.85;;;;;;;7.95;92.50;102392.63;5064226;28;20496;-67
2022/11/11 07:23:12;;;;;;;11.15;4.32;;;;;;;7.69;94.27;102387.78;5057689;28;20049;-67
2022/11/11 07:25:39;;;;;;;9.27;4.15;;;;;;;7.62;95.08;102387.88;5046199;28;20497;-67
2022/11/11 07:28:05;;;;;;;7.85;3.58;;;;;;;7.75;95.42;102387.72;5050162;28;20044;-67
2022/11/11 07:30:31;;;;;;;7.38;3.35;;;;;;;7.81;94.60;102377.16;5064896;28;20139;-67
2022/11/11 07:32:58;;;;;;;10.35;3.60;;;;;;;7.88;94.57;102390.13;5063622;28;20052;-66
2022/11/11 07:35:26;;;;;;;11.68;4.38;;;;;;;7.84;95.00;102391.91;5064834;28;20067;-65
2022/11/11 07:37:52;;;;;;;10.77;3.28;;;;;;;8.35;92.37;102403.41;5064461;28;20071;-66
2022/11/11 07:40:19;;;;;;;10.45;3.60;;;;;;;8.67;90.72;102413.31;5063579;28;20539;-67
2022/11/11 07:42:46;;;;;;;8.82;3.50;;;;;;;8.80;89.79;102417.41;5063599;28;20044;-66
2022/11/11 07:45:13;;;;;;;10.45;4.28;;;;;;;9.18;88.15;102430.66;5065110;28;20127;-66
2022/11/11 07:47:43;;;;;;;8.68;3.88;;;;;;;9.14;87.47;102428.13;5064250;28;20546;-66
2022/11/11 07:50:10;;;;;;;12.27;4.00;;;;;;;9.41;86.28;102440.69;5069472;28;20459;-66
2022/11/11 07:52:37;;;;;;;9.63;3.50;;;;;;;9.46;86.84;102433.59;5065970;28;20059;-67
2022/11/11 07:55:05;;;;;;;7.50;3.10;;;;;;;9.67;86.06;102443.66;5079908;28;20059;-66
2022/11/11 07:57:31;;;;;;;16.77;4.65;;;;;;;9.55;86.43;102440.41;5067711;28;20045;-66
2022/11/11 07:59:58;;;;;;;8.68;4.70;;;;;;;9.24;86.66;102443.63;5069889;28;20735;-67
2022/11/11 08:02:24;;;;;;;11.35;3.95;;;;;;;9.12;87.51;102443.00;5068032;28;20109;-66
2022/11/11 08:04:50;;;;;;;10.68;4.85;;;;;;;9.62;86.36;102452.47;5044377;28;20430;-66
2022/11/11 08:07:18;;;;;;;9.50;3.72;;;;;;;9.60;85.50;102446.44;5071818;28;20411;-66
2022/11/11 08:09:46;;;;;;;12.45;4.22;;;;;;;9.63;86.10;102449.84;5065932;28;20072;-66
2022/11/11 08:14:56;;;;;;;10.00;4.22;;;;;;;10.15;83.64;102457.47;5053582;28;20502;-66
2022/11/11 08:17:23;;;;;;;10.65;4.00;;;;;;;10.51;82.44;102458.38;5057074;28;20045;-66
2022/11/11 08:19:49;;;;;;;11.73;3.70;;;;;;;10.48;81.33;102453.19;5059249;28;20049;-66
2022/11/11 08:22:16;;;;;;;10.90;4.10;;;;;;;9.93;84.62;102453.56;5068869;28;20055;-67
2022/11/11 08:24:42;;;;;;;8.63;3.63;;;;;;;10.19;84.07;102463.50;5049133;28;20052;-66
2022/11/11 08:27:10;;;;;;;9.68;3.88;;;;;;;10.42;83.16;102460.34;5045880;28;20057;-66
2022/11/11 08:29:37;;;;;;;10.88;4.25;;;;;;;10.87;81.28;102456.56;5064759;28;20252;-66
2022/11/11 08:32:03;;;;;;;12.27;4.10;;;;;;;11.21;79.54;102467.06;5053893;28;20060;-67
2022/11/11 08:34:30;;;;;;;8.43;4.03;;;;;;;11.09;79.91;102454.25;5059944;28;20065;-67
2022/11/11 08:36:56;;;;;;;9.77;3.83;;;;;;;11.19;79.31;102455.75;5050736;28;20056;-67
2022/11/11 08:39:23;;;;;;;22.42;11.05;;;;;;;10.46;82.09;102454.97;5049936;28;20052;-67
2022/11/11 08:41:49;;;;;;;10.57;5.00;;;;;;;10.37;82.19;102451.72;5060491;28;20048;-67
2022/11/11 08:44:17;;;;;;;9.05;4.40;;;;;;;10.20;83.00;102445.09;5068375;28;20130;-66
2022/11/11 08:46:44;;;;;;;7.32;3.95;;;;;;;10.10;85.15;102454.06;5050676;28;20079;-66
2022/11/11 08:49:11;;;;;;;10.05;4.60;;;;;;;10.31;84.09;102452.72;5040596;28;20067;-66
2022/11/11 08:51:38;;;;;;;7.65;3.42;;;;;;;10.60;82.36;102457.28;5048885;28;20568;-66
2022/11/11 08:54:04;;;;;;;15.23;3.75;;;;;;;10.21;83.54;102464.31;5054912;28;20396;-66
2022/11/11 08:56:31;;;;;;;9.52;3.85;;;;;;;10.56;82.72;102469.63;5059832;28;20055;-67
2022/11/11 08:58:57;;;;;;;11.25;3.45;;;;;;;10.30;83.89;102465.88;5058263;28;20404;-67
2022/11/11 09:01:25;;;;;;;9.88;3.80;;;;;;;10.71;83.52;102468.38;5050896;28;20045;-67
2022/11/11 09:03:52;;;;;;;9.63;4.05;;;;;;;10.61;82.93;102465.09;5039605;28;20048;-67
2022/11/11 09:06:18;;;;;;;8.00;3.45;;;;;;;11.14;81.38;102470.75;5048813;28;20409;-67
2022/11/11 09:08:44;;;;;;;6.45;3.20;;;;;;;10.61;83.09;102477.34;5051937;28;20053;-67
2022/11/11 09:11:12;;;;;;;9.48;3.80;;;;;;;10.66;83.03;102484.22;5039595;28;20044;-67
2022/11/11 09:13:39;;;;;;;11.63;4.07;;;;;;;11.10;82.63;102477.84;5048707;28;20048;-67
2022/11/11 09:16:06;;;;;;;9.35;3.95;;;;;;;11.68;79.33;102482.34;5049418;28;20045;-67
2022/11/11 09:18:34;;;;;;;9.05;3.50;;;;;;;11.73;78.48;102484.03;5047516;28;20052;-67
2022/11/11 09:21:01;;;;;;;6.32;3.60;;;;;;;11.75;78.42;102482.25;5048413;28;20052;-67
2022/11/11 09:23:27;;;;;;;8.15;3.15;;;;;;;12.34;76.89;102481.28;5033862;28;20056;-67
2022/11/11 09:25:54;;;;;;;8.27;3.05;;;;;;;12.32;77.47;102479.59;5039272;28;20044;-67
2022/11/11 09:28:20;;;;;;;8.25;4.13;;;;;;;12.13;76.11;102479.31;5049422;28;20036;-67
2022/11/11 09:30:47;;;;;;;8.10;3.45;;;;;;;11.47;78.65;102487.34;5053233;28;20064;-67
2022/11/11 09:33:15;;;;;;;8.80;3.70;;;;;;;11.36;79.61;102485.03;5039538;28;20041;-67
2022/11/11 09:35:42;;;;;;;6.15;2.97;;;;;;;11.90;79.28;102487.88;5059784;28;20052;-67
2022/11/11 09:38:09;;;;;;;14.48;3.55;;;;;;;11.67;78.34;102485.91;5069905;28;20051;-67
2022/11/11 09:40:52;;;;;;;6.25;3.25;;;;;;;11.90;79.70;102500.19;5043928;28;20044;-67
2022/11/11 09:43:24;;;;;;;;;;;;;;;11.99;78.27;102503.41;5070612;28;20044;-67
2022/11/11 09:46:06;;;;;;;11.02;3.25;;;;;;;11.88;77.63;102513.38;5058787;28;20291;-67
2022/11/11 09:48:57;;;;;;;6.47;3.10;;;;;;;12.07;76.88;102513.69;5060533;28;20499;-67
2022/11/11 09:51:32;;;;;;;6.75;3.33;;;;;;;12.34;77.23;102520.72;5042599;28;20166;-67
2022/11/11 09:54:05;;;;;;;12.40;4.25;;;;;;;12.55;76.65;102524.47;5048831;28;20036;-67
2022/11/11 09:56:32;;;;;;;8.45;3.33;;;;;;;12.25;76.25;102523.66;5049486;28;20487;-67
2022/11/11 09:59:05;;;;;;;10.52;3.85;;;;;;;12.82;74.36;102531.50;5054140;28;20044;-67
2022/11/11 10:01:37;;;;;;;5.60;3.30;;;;;;;12.67;74.70;102534.63;5038903;28;20040;-67
2022/11/11 10:04:13;;;;;;;5.97;3.33;;;;;;;13.05;73.89;102523.69;5050758;28;20045;-67
2022/11/11 10:06:41;;;;;;;9.77;3.70;;;;;;;13.38;72.38;102531.38;5038109;28;20074;-67
2022/11/11 10:09:18;;;;;;;6.88;3.22;;;;;;;13.17;71.80;102538.25;5048012;28;20048;-67
2022/11/11 10:11:55;;;;;;;8.35;3.03;;;;;;;13.72;72.04;102541.56;5060272;28;20055;-67
2022/11/11 10:14:22;;;;;;;7.35;2.85;;;;;;;13.67;69.49;102535.63;5068890;28;20487;-66
2022/11/11 10:16:57;;;;;;;7.28;2.88;;;;;;;13.72;70.80;102538.94;5059136;28;20527;-67
2022/11/11 10:19:29;;;;;;;10.27;3.75;;;;;;;13.23;72.01;102551.19;5034146;28;20535;-67
2022/11/11 10:21:59;;;;;;;;;;;;;;;13.26;71.30;102550.25;5047749;28;20048;-67
2022/11/11 10:24:30;;;;;;;9.13;3.10;;;;;;;13.03;73.24;102543.94;5049090;28;19927;-67
2022/11/11 10:26:59;;;;;;;6.25;2.67;;;;;;;13.52;71.29;102548.44;5047774;28;20048;-67
2022/11/11 10:29:30;;;;;;;7.43;2.92;;;;;;;13.85;70.86;102550.78;5028646;28;20041;-68
2022/11/11 10:32:03;;;;;;;7.63;2.70;;;;;;;13.86;70.39;102557.75;5038729;28;20059;-67
2022/11/11 10:34:34;;;;;;;7.57;3.13;;;;;;;14.15;69.08;102554.91;5047826;28;20048;-67
2022/11/11 10:37:03;;;;;;;7.38;3.20;;;;;;;13.88;71.00;102551.53;5048561;28;20037;-67
2022/11/11 10:39:41;;;;;;;6.57;2.63;;;;;;;13.28;71.87;102557.19;5044310;28;20060;-67
2022/11/11 10:42:16;;;;;;;8.65;2.67;;;;;;;13.19;73.91;102557.50;5031227;28;20481;-67
2022/11/11 10:44:43;;;;;;;6.50;2.92;;;;;;;13.29;72.33;102560.69;5042697;28;20072;-67
2022/11/11 10:47:15;;;;;;;9.10;3.22;;;;;;;13.37;73.37;102558.66;5045387;28;20044;-67
2022/11/11 10:49:51;;;;;;;6.32;2.80;;;;;;;13.73;72.04;102561.75;5036411;28;20075;-67
2022/11/11 10:52:22;;;;;;;5.78;2.65;;;;;;;13.49;71.86;102563.47;5045968;28;20047;-67
2022/11/11 10:54:54;;;;;;;5.20;2.30;;;;;;;13.82;71.83;102561.44;5048440;28;20044;-67
2022/11/11 10:57:22;;;;;;;;;;;;;;;14.26;71.37;102568.56;5068146;28;20053;-67
2022/11/11 10:59:54;;;;;;;8.38;2.47;;;;;;;14.70;72.59;102566.88;5065408;28;19920;-67
2022/11/11 11:02:24;;;;;;;5.68;2.63;;;;;;;14.25;69.02;102558.91;5045230;28;20048;-68
2022/11/11 11:04:55;;;;;;;8.38;2.58;;;;;;;14.08;68.88;102551.63;5067484;28;20049;-67
2022/11/11 11:07:28;;;;;;;5.38;2.50;;;;;;;13.98;70.04;102558.16;5083808;28;20558;-67
2022/11/11 11:10:00;;;;;;;5.70;2.65;;;;;;;14.12;69.79;102547.09;5085110;28;21605;-67
2022/11/11 11:12:34;;;;;;;5.47;2.55;;;;;;;13.93;70.66;102548.72;5065552;28;20408;-67
2022/11/11 11:15:05;;;;;;;14.05;3.35;;;;;;;13.93;70.25;102544.28;5068150;28;20047;-67
2022/11/11 11:17:37;;;;;;;7.65;2.65;;;;;;;13.99;69.76;102553.75;5077725;28;20481;-68
2022/11/11 11:20:11;;;;;;;8.33;2.50;;;;;;;14.47;68.79;102544.00;5064982;28;20048;-68
2022/11/11 11:22:51;;;;;;;9.65;2.65;;;;;;;14.95;66.48;102542.94;5064652;28;20416;-68
2022/11/11 11:25:19;;;;;;;10.43;2.72;;;;;;;14.91;68.30;102544.84;5070654;28;20073;-68
2022/11/11 11:27:46;;;;;;;5.53;2.45;;;;;;;14.42;68.16;102543.31;5084610;28;20056;-67
2022/11/11 11:30:15;;;;;;;6.95;1.98;;;;;;;14.63;67.87;102546.03;5083372;28;20454;-67
2022/11/11 11:32:43;;;;;;;5.82;2.25;;;;;;;14.60;68.27;102542.59;5086264;28;20063;-67
2022/11/11 11:35:10;;;;;;;7.18;2.78;;;;;;;13.99;69.40;102540.56;5078300;28;20547;-67
2022/11/11 11:37:50;;;;;;;6.32;3.17;;;;;;;13.95;69.72;102536.31;5065200;28;20044;-67
2022/11/11 11:40:17;;;;;;;6.45;2.40;;;;;;;13.90;70.38;102533.84;5062208;28;20047;-67
2022/11/11 11:42:44;;;;;;;8.30;3.13;;;;;;;14.51;69.25;102532.41;5070813;28;20055;-67
2022/11/11 11:45:19;;;;;;;9.55;2.00;;;;;;;13.96;70.77;102533.66;5080617;28;20124;-67
2022/11/11 11:47:55;;;;;;;7.45;1.90;;;;;;;14.28;70.21;102529.78;5064923;28;20048;-67
2022/11/11 11:50:31;;;;;;;8.43;2.67;;;;;;;14.76;70.12;102519.06;5065168;28;20463;-68
2022/11/11 11:53:18;;;;;;;7.43;2.65;;;;;;;14.75;69.38;102514.69;5062026;28;20076;-68
2022/11/11 11:55:50;;;;;;;6.13;2.33;;;;;;;15.29;68.97;102513.31;5064445;28;20454;-68
2022/11/11 11:58:28;;;;;;;6.65;2.75;;;;;;;15.47;67.33;102512.53;5064582;28;20047;-68
2022/11/11 12:01:04;;;;;;;7.75;2.53;;;;;;;15.62;67.78;102503.09;5061302;28;20051;-68
2022/11/11 12:04:02;;;;;;;5.55;2.50;;;;;;;14.90;68.47;102498.22;5064686;28;20094;-67
2022/11/11 12:06:39;;;;;;;6.65;2.40;;;;;;;15.23;68.82;102500.34;5058619;28;20445;-67
2022/11/11 12:09:18;;;;;;;7.07;2.80;;;;;;;15.68;67.85;102497.50;5064444;28;20045;-67
2022/11/11 12:11:51;;;;;;;6.47;2.38;;;;;;;16.44;65.23;102495.63;5062589;28;20432;-67
2022/11/11 12:14:51;;;;;;;5.72;2.55;;;;;;;17.14;64.06;102499.25;5064051;28;20052;-67
2022/11/11 12:17:28;;;;;;;5.90;2.30;;;;;;;17.55;62.49;102495.31;5063918;28;20056;-67
2022/11/11 12:20:04;;;;;;;5.38;2.40;;;;;;;17.76;60.34;102507.47;5060604;28;20044;-67
2022/11/11 12:22:41;;;;;;;6.82;2.15;;;;;;;17.31;60.17;102499.25;5063361;28;20033;-68
2022/11/11 12:25:20;;;;;;;4.70;2.10;;;;;;;15.97;63.46;102497.91;5069520;28;20052;-67
2022/11/11 12:27:57;;;;;;;6.03;2.28;;;;;;;16.53;64.90;102500.50;5064454;28;20415;-68
2022/11/11 12:30:27;;;;;;;3.90;2.00;;;;;;;15.55;65.43;102491.94;5079048;28;20168;-68
2022/11/11 12:33:29;;;;;;;15.23;2.65;;;;;;;15.73;67.11;102498.16;5084631;28;20044;-67
2022/11/11 12:36:06;;;;;;;5.27;2.13;;;;;;;16.11;65.87;102493.75;5079106;28;20055;-67
2022/11/11 12:38:50;;;;;;;4.47;2.10;;;;;;;15.83;64.20;102499.47;5079729;28;20048;-68
2022/11/11 12:41:25;;;;;;;8.27;2.42;;;;;;;16.37;64.48;102488.91;5063959;28;20533;-67
2022/11/11 12:44:01;;;;;;;5.28;2.33;;;;;;;16.39;63.68;102489.72;5065712;28;20055;-67
2022/11/11 12:46:37;;;;;;;3.97;2.08;;;;;;;16.37;63.44;102491.56;5066210;28;20055;-68
2022/11/11 12:49:18;;;;;;;7.63;2.08;;;;;;;16.69;64.67;102492.69;5068158;28;20090;-68
2022/11/11 12:51:56;;;;;;;6.50;2.15;;;;;;;16.98;62.97;102484.16;5069519;28;20048;-68